Flight Track Log - Related Links

Times and Time Zones

All times are in EDT time to prevent confusion due to time zone crossing. See the JIA2404 flight status page for this flight to view local times or setup timezone preferences in your user account.


Time Position Orientation Groundspeed Altitude Reporting Facility
EDT Latitude Longitude Course Direction KTS MPH feet Rate Location/Type
Sun 01:19:32 PM 36.4667 -82.3610 248° West  Level FlightAware Approximate
Sun 01:19:52 PM 36.4381 -82.4492 162° South 184 212 3,300  Level Atlanta Center
Sun 01:24:52 PM 36.1192 -82.3217 173° South 291 335 13,000 1,617 Climbing Atlanta Center
Sun 01:25:52 PM 36.0336 -82.3081 174° South 306 352 13,000  Level Atlanta Center
Sun 01:26:52 PM 35.9478 -82.2972 170° South 311 358 13,000  Level Atlanta Center
Sun 01:27:52 PM 35.8600 -82.2786 126° Southeast 311 358 13,000  Level Atlanta Center
Sun 01:28:52 PM 35.8150 -82.2028 113° Southeast 287 330 13,000  Level Atlanta Center
Sun 01:29:52 PM 35.7822 -82.1061 113° Southeast 293 337 13,000  Level Atlanta Center
Sun 01:30:52 PM 35.7408 -81.9869 113° Southeast 347 399 13,000  Level Atlanta Center
Sun 01:31:34 PM 35.7056 -81.8828 113° Southeast 399 459 13,000  Level Atlanta Center
Sun 01:32:52 PM 35.6528 -81.7283 112° Southeast 401 461 13,000  Level Atlanta Center
Sun 01:33:52 PM 35.6217 -81.6322 121° Southeast 338 389 13,000 -450 Level Atlanta Center
Sun 01:34:52 PM 35.5781 -81.5442 128° Southeast 304 350 12,100 -500 Descending Atlanta Center
Sun 01:35:52 PM 35.5264 -81.4639 130° Southeast 304 350 12,000 -550 Descending Atlanta Center
Sun 01:36:52 PM 35.4683 -81.3792 129° Southeast 309 356 11,000 -1,000 Descending Atlanta Center
Sun 01:37:52 PM 35.4186 -81.3042 130° Southeast 303 349 10,000 -500 Descending Atlanta Center
Sun 01:38:52 PM 35.3711 -81.2344 130° Southeast 278 320 10,000  Level Atlanta Center
Sun 01:39:52 PM 35.3217 -81.1625 130° Southeast 278 320 10,000  Level Atlanta Center
Sun 01:40:52 PM 35.2739 -81.0928 167° South 278 320 10,000 -826 Level Atlanta Center
Sun 01:42:10 PM 35.1836 -81.0681 176° South 255 293 8,100 -1,252 Descending Atlanta Center
Sun 01:43:11 PM 35.1231 -81.0628 175° South 210 242 7,100 -1,033 Descending Atlanta Center
Sun 01:44:12 PM 35.0686 -81.0569 179° South 190 219 6,000 -541 Descending Atlanta Center
Sun 01:45:13 PM 35.0164 -81.0564 176° South 190 219 6,000 -141 Level Atlanta Center
Sun 01:46:20 PM 34.9578 -81.0508 173° South 190 219 5,700 -469 Descending Atlanta Center
Sun 01:47:21 PM 34.9014 -81.0428 175° South 199 229 5,000 -344 Descending Atlanta Center
Sun 01:48:22 PM 34.8450 -81.0372 121° Southeast 199 229 5,000  Level Atlanta Center
Sun 01:49:18 PM 34.8250 -80.9972 64° Northeast 188 216 5,000  Level Atlanta Center
Sun 01:50:19 PM 34.8447 -80.9486 North 165 190 5,000  Level Atlanta Center
Sun 01:51:26 PM 34.8947 -80.9417 354° North 170 196 5,000  Level Atlanta Center
Sun 01:52:26 PM 34.9428 -80.9475 356° North 169 194 5,000 -52 Level Atlanta Center
Sun 01:53:22 PM 34.9847 -80.9508 355° North 173 199 4,900 -590 Descending Atlanta Center
Sun 01:54:28 PM 35.0411 -80.9564 357° North 176 203 3,800 -886 Descending Atlanta Center
Sun 01:57:19 PM 35.1706 -80.9644 357° North 147 169 1,400 -842 Descending Atlanta Center

Login

Don't have an account? Register now (free) for customized features, flight alerts, and more!